Time,TemperatureF,DewpointF,PressureIn,WindDirection,WindDirectionDegrees,WindSpeedMPH,WindSpeedGustMPH,Humidity,HourlyPrecipIn,Conditions,Clouds,dailyrainin,SoftwareType,DateUTC
2013-11-01 00:01:00,42.0,22.0,-100.00,WNW,295,19.0,30.0,44,-99.99,,,-99.99,,2013-11-01 06:01:00,
2013-11-01 00:12:00,42.0,23.0,-100.00,WNW,290,17.0,23.0,45,-99.99,,,-99.99,,2013-11-01 06:12:00,
2013-11-01 00:42:00,42.0,22.0,-100.00,WNW,295,19.0,30.0,44,-99.99,,,-99.99,,2013-11-01 06:42:00,
2013-11-01 00:52:00,42.0,22.0,-100.00,WNW,295,19.0,30.0,44,-99.99,,,-99.99,,2013-11-01 06:52:00,
2013-11-01 01:21:00,42.0,22.0,-100.00,WNW,295,15.0,27.0,45,-99.99,,,-99.99,,2013-11-01 07:21:00,
2013-11-01 01:42:00,42.0,22.0,-100.00,WNW,285,16.0,24.0,45,-99.99,,,-99.99,,2013-11-01 07:42:00,
2013-11-01 01:52:00,42.0,22.0,-100.00,WNW,285,16.0,24.0,45,-99.99,,,-99.99,,2013-11-01 07:52:00,
2013-11-01 02:00:00,42.0,22.0,-100.00,West,280,12.0,19.0,45,-99.99,,,-99.99,,2013-11-01 08:00:00,
2013-11-01 02:12:00,42.0,22.0,-100.00,WNW,290,14.0,18.0,45,-99.99,,,-99.99,,2013-11-01 08:12:00,
2013-11-01 02:21:00,42.0,22.0,-100.00,WNW,290,14.0,18.0,45,-99.99,,,-99.99,,2013-11-01 08:21:00,
2013-11-01 02:42:00,42.0,22.0,-100.00,West,280,12.0,19.0,45,-99.99,,,-99.99,,2013-11-01 08:42:00,
2013-11-01 02:52:00,42.0,22.0,-100.00,West,280,12.0,19.0,45,-99.99,,,-99.99,,2013-11-01 08:52:00,
2013-11-01 03:00:00,41.0,22.0,-100.00,WNW,295,16.0,22.0,47,-99.99,,,-99.99,,2013-11-01 09:00:00,
2013-11-01 03:21:00,41.0,22.0,-100.00,WNW,290,16.0,21.0,46,-99.99,,,-99.99,,2013-11-01 09:21:00,
2013-11-01 03:43:00,41.0,22.0,-100.00,WNW,295,16.0,22.0,47,-99.99,,,-99.99,,2013-11-01 09:43:00,
2013-11-01 03:53:00,41.0,22.0,-100.00,WNW,295,16.0,22.0,47,-99.99,,,-99.99,,2013-11-01 09:53:00,
2013-11-01 04:23:00,40.0,22.0,-100.00,NW,305,14.0,21.0,48,-99.99,,,-99.99,,2013-11-01 10:23:00,
2013-11-01 04:42:00,40.0,22.0,-100.00,WNW,295,13.0,21.0,48,-99.99,,,-99.99,,2013-11-01 10:42:00,
2013-11-01 04:52:00,40.0,22.0,-100.00,WNW,295,13.0,21.0,48,-99.99,,,-99.99,,2013-11-01 10:52:00,
2013-11-01 05:12:00,40.0,22.0,-100.00,WNW,300,17.0,21.0,48,-99.99,,,-99.99,,2013-11-01 11:12:00,
2013-11-01 05:42:00,39.0,21.0,-100.00,WNW,295,16.0,24.0,49,-99.99,,,-99.99,,2013-11-01 11:42:00,
2013-11-01 05:52:00,39.0,21.0,-100.00,WNW,295,16.0,24.0,49,-99.99,,,-99.99,,2013-11-01 11:52:00,
2013-11-01 06:12:00,38.0,21.0,-100.00,WNW,300,16.0,21.0,50,-99.99,,,-99.99,,2013-11-01 12:12:00,
2013-11-01 06:22:00,38.0,21.0,-100.00,WNW,300,16.0,21.0,50,-99.99,,,-99.99,,2013-11-01 12:22:00,
2013-11-01 06:42:00,37.0,21.0,-100.00,NW,310,15.0,21.0,51,-99.99,,,-99.99,,2013-11-01 12:42:00,
2013-11-01 06:52:00,37.0,21.0,-100.00,NW,310,15.0,21.0,51,-99.99,,,-99.99,,2013-11-01 12:52:00,
2013-11-01 07:00:00,37.0,20.0,-100.00,WNW,285,11.0,14.0,50,-99.99,,,-99.99,,2013-11-01 13:00:00,
2013-11-01 07:12:00,38.0,21.0,-100.00,WNW,300,12.0,16.0,50,-99.99,,,-99.99,,2013-11-01 13:12:00,
2013-11-01 07:22:00,38.0,21.0,-100.00,WNW,300,12.0,16.0,50,-99.99,,,-99.99,,2013-11-01 13:22:00,
2013-11-01 07:42:00,37.0,20.0,-100.00,WNW,285,11.0,14.0,50,-99.99,,,-99.99,,2013-11-01 13:42:00,
2013-11-01 07:52:00,37.0,20.0,-100.00,WNW,285,11.0,14.0,50,-99.99,,,-99.99,,2013-11-01 13:52:00,
2013-11-01 08:00:00,37.0,20.0,-100.00,West,275,9.0,14.0,50,-99.99,,,0.00,,2013-11-01 14:00:00,
2013-11-01 08:52:00,37.0,20.0,-100.00,West,275,9.0,14.0,50,-99.99,,,0.00,,2013-11-01 14:52:00,
2013-11-01 09:00:00,40.0,21.0,-100.00,WNW,285,12.0,17.0,47,-99.99,,,0.00,,2013-11-01 15:00:00,
2013-11-01 09:21:00,38.0,21.0,-100.00,West,270,9.0,13.0,49,-99.99,,,0.00,,2013-11-01 15:21:00,
2013-11-01 09:43:00,40.0,21.0,-100.00,WNW,285,12.0,17.0,47,-99.99,,,0.00,,2013-11-01 15:43:00,
2013-11-01 09:54:00,40.0,21.0,-100.00,WNW,285,12.0,17.0,47,-99.99,,,0.00,,2013-11-01 15:54:00,
2013-11-01 10:00:00,44.0,22.0,-100.00,WNW,285,11.0,17.0,42,-99.99,,,0.00,,2013-11-01 16:00:00,
2013-11-01 10:43:00,44.0,22.0,-100.00,WNW,285,11.0,17.0,42,-99.99,,,0.00,,2013-11-01 16:43:00,
2013-11-01 10:53:00,44.0,22.0,-100.00,WNW,285,11.0,17.0,42,-99.99,,,0.00,,2013-11-01 16:53:00,
2013-11-01 11:43:00,46.0,22.0,-100.00,West,280,14.0,19.0,39,-99.99,,,0.00,,2013-11-01 17:43:00,
2013-11-01 11:52:00,46.0,22.0,-100.00,West,280,14.0,19.0,39,-99.99,,,0.00,,2013-11-01 17:52:00,
2013-11-01 12:12:00,48.0,23.0,-100.00,NW,310,16.0,21.0,37,-99.99,,,0.00,,2013-11-01 18:12:00,
2013-11-01 12:22:00,48.0,23.0,-100.00,NW,310,16.0,21.0,37,-99.99,,,0.00,,2013-11-01 18:22:00,
2013-11-01 12:42:00,49.0,22.0,-100.00,NW,305,19.0,25.0,35,-99.99,,,0.00,,2013-11-01 18:42:00,
2013-11-01 12:52:00,49.0,22.0,-100.00,NW,305,19.0,25.0,35,-99.99,,,0.00,,2013-11-01 18:52:00,
2013-11-01 13:00:00,48.0,21.0,-100.00,WNW,285,11.0,16.0,34,-99.99,,,0.00,,2013-11-01 19:00:00,
2013-11-01 13:12:00,50.0,23.0,-100.00,NW,305,12.0,21.0,35,-99.99,,,0.00,,2013-11-01 19:12:00,
2013-11-01 13:21:00,50.0,23.0,-100.00,NW,305,12.0,21.0,35,-99.99,,,0.00,,2013-11-01 19:21:00,
2013-11-01 13:42:00,48.0,21.0,-100.00,WNW,285,11.0,16.0,34,-99.99,,,0.00,,2013-11-01 19:42:00,
2013-11-01 13:52:00,48.0,21.0,-100.00,WNW,285,11.0,16.0,34,-99.99,,,0.00,,2013-11-01 19:52:00,
2013-11-01 14:00:00,49.0,23.0,-100.00,NW,305,12.0,24.0,36,-99.99,,,0.00,,2013-11-01 20:00:00,
2013-11-01 14:42:00,49.0,23.0,-100.00,NW,305,12.0,24.0,36,-99.99,,,0.00,,2013-11-01 20:42:00,
2013-11-01 14:52:00,49.0,23.0,-100.00,NW,305,12.0,24.0,36,-99.99,,,0.00,,2013-11-01 20:52:00,
2013-11-01 15:00:00,50.0,23.0,-100.00,WNW,285,11.0,14.0,34,-99.99,,,0.00,,2013-11-01 21:00:00,
2013-11-01 15:21:00,49.0,23.0,-100.00,WNW,295,10.0,14.0,36,-99.99,,,0.00,,2013-11-01 21:21:00,
2013-11-01 15:43:00,50.0,23.0,-100.00,WNW,285,11.0,14.0,34,-99.99,,,0.00,,2013-11-01 21:43:00,
2013-11-01 15:55:00,50.0,23.0,-100.00,WNW,285,11.0,14.0,34,-99.99,,,0.00,,2013-11-01 21:55:00,
2013-11-01 16:00:00,52.0,24.0,-100.00,NW,305,17.0,22.0,33,-99.99,,,0.00,,2013-11-01 22:00:00,
2013-11-01 16:24:00,50.0,22.0,-100.00,West,270,10.0,15.0,34,-99.99,,,0.00,,2013-11-01 22:24:00,
2013-11-01 16:42:00,52.0,24.0,-100.00,NW,305,17.0,22.0,33,-99.99,,,0.00,,2013-11-01 22:42:00,
2013-11-01 16:53:00,52.0,24.0,-100.00,NW,305,17.0,22.0,33,-99.99,,,0.00,,2013-11-01 22:53:00,
2013-11-01 17:00:00,51.0,22.0,-100.00,NW,315,12.0,21.0,32,-99.99,,,0.00,,2013-11-01 23:00:00,
2013-11-01 17:42:00,51.0,22.0,-100.00,NW,315,12.0,21.0,32,-99.99,,,0.00,,2013-11-01 23:42:00,
2013-11-01 17:53:00,51.0,22.0,-100.00,NW,315,12.0,21.0,32,-99.99,,,0.00,,2013-11-01 23:53:00,
2013-11-01 18:21:00,49.0,22.0,-100.00,NW,315,10.0,15.0,34,-99.99,,,0.00,,2013-11-02 00:21:00,
2013-11-01 18:42:00,45.0,20.0,-100.00,NNW,330,11.0,15.0,37,-99.99,,,0.00,,2013-11-02 00:42:00,
2013-11-01 18:52:00,45.0,20.0,-100.00,NNW,330,11.0,15.0,37,-99.99,,,0.00,,2013-11-02 00:52:00,
2013-11-01 19:12:00,42.0,20.0,-100.00,WNW,300,4.0,10.0,41,-99.99,,,0.00,,2013-11-02 01:12:00,
2013-11-01 19:42:00,42.0,21.0,-100.00,WSW,255,6.0,9.0,42,-99.99,,,0.00,,2013-11-02 01:42:00,
2013-11-01 19:52:00,42.0,21.0,-100.00,WSW,255,6.0,9.0,42,-99.99,,,0.00,,2013-11-02 01:52:00,
2013-11-01 20:11:00,43.0,21.0,-100.00,West,280,4.0,8.0,40,-99.99,,,0.00,,2013-11-02 02:11:00,
2013-11-01 20:22:00,43.0,21.0,-100.00,West,280,4.0,8.0,40,-99.99,,,0.00,,2013-11-02 02:22:00,
2013-11-01 21:00:00,42.0,20.0,-100.00,SSW,200,3.0,4.0,41,-99.99,,,0.00,,2013-11-02 03:00:00,
2013-11-01 21:11:00,42.0,20.0,-100.00,WSW,250,6.0,7.0,40,-99.99,,,0.00,,2013-11-02 03:11:00,
2013-11-01 21:21:00,42.0,20.0,-100.00,WSW,250,6.0,7.0,40,-99.99,,,0.00,,2013-11-02 03:21:00,
2013-11-01 21:53:00,42.0,20.0,-100.00,SSW,200,3.0,4.0,41,-99.99,,,0.00,,2013-11-02 03:53:00,
2013-11-01 22:43:00,42.0,20.0,-100.00,SSW,195,3.0,6.0,41,-99.99,,,0.00,,2013-11-02 04:43:00,
2013-11-01 22:54:00,42.0,20.0,-100.00,SSW,195,3.0,6.0,41,-99.99,,,0.00,,2013-11-02 04:54:00,
2013-11-01 23:13:00,43.0,20.0,-100.00,SW,220,3.0,4.0,40,-99.99,,,0.00,,2013-11-02 05:13:00,
2013-11-01 23:42:00,43.0,20.0,-100.00,WSW,250,4.0,5.0,39,-99.99,,,0.00,,2013-11-02 05:42:00,
2013-11-01 23:52:00,43.0,20.0,-100.00,WSW,250,4.0,5.0,39,-99.99,,,0.00,,2013-11-02 05:52:00,